Etusivu
METAR-TAF:

METAR-TAF

Lentoasemat :

Decorah Municipal Airport

Decorah, Iowa, Yhdysvallat

Leveyspiiri: 43-17N, Pituuspiiri: 091-44W, korkeus merenpinnasta: 353 m

Tämänhetkinen sää

Tämä raportti tehtiin 19 minuuttia sitten, kello 10.15 UTC
Tuuli 8 kn luoteesta puuskistuen 14 kn:hen, vaihdellen lännen ja pohjoisen/luoteen välillä
Lämpötila 7°C
Kosteus 49%
Ilmanpaine 1013 hPa
Näkyvyys: 16.1 km
selkeää

METAR: KDEH 261015Z AUTO 31008G14KT 280V340 10SM CLR 07/M03 A2990 RMK AO2

Aika: 05:34 (10:34 UTC)


TAF: puuttuu

Säähavainnot ja -ennusteet yli 4000 lentoasemalta (METAR- ja TAF-raportit).

Käytössä olevat sääasemat on merkitty karttaan keltaisilla ja punaisilla pisteillä.

Aseta hiiri pisteen päälle nähdäksesi sääaseman nimen.

Klikkaa sitten nähdäksesi säähavainnot ja -ennusteet.

Kartan vaihtaminen: klikkaa mustalla rastilla varustettuja vihreitä pisteitä, niin voit zoomata sisään; viivalla varustettua vihreää pistettä, niin voit zoomata ulos tai vihreitä nuolia, niin pääset viereisille kartoille.


METAR-TAF: